Time;durP1;ratioP1;P1;durP2;ratioP2;P2;SDS_P1;SDS_P2;PMS_P1;PMS_P2;Temp;Humidity;BMP_temperature;BMP_pressure;BME280_temperature;BME280_humidity;BME280_pressure;Samples;Min_cycle;Max_cycle;Signal;HPM_P1;HPM_P2
2023/06/19 00:01:43;;;;;;;0.00;0.00;;;;;;;29.98;31.01;100817.94;5030605;28;20021;-73
2023/06/19 00:04:10;;;;;;;0.00;0.00;;;;;;;30.06;31.05;100814.19;5030133;28;20060;-71
2023/06/19 00:06:35;;;;;;;0.00;0.00;;;;;;;29.93;31.72;100815.44;5029976;28;20037;-72
2023/06/19 00:09:01;;;;;;;0.00;0.00;;;;;;;30.47;30.88;100818.44;5037627;28;20055;-73
2023/06/19 00:11:26;;;;;;;0.00;0.00;;;;;;;30.71;30.17;100812.66;5038912;28;20100;-71
2023/06/19 00:13:52;;;;;;;0.00;0.00;;;;;;;30.09;31.16;100824.56;5041005;28;20075;-72
2023/06/19 00:16:19;;;;;;;0.00;0.00;;;;;;;30.64;30.14;100818.06;5038078;28;20103;-71
2023/06/19 00:18:44;;;;;;;0.00;0.00;;;;;;;30.57;30.33;100809.53;5040779;28;20120;-72
2023/06/19 00:21:10;;;;;;;0.00;0.00;;;;;;;30.63;30.51;100808.91;5018571;28;20049;-73
2023/06/19 00:23:35;;;;;;;0.00;0.00;;;;;;;30.89;30.13;100820.28;5027057;28;20096;-72
2023/06/19 00:26:01;;;;;;;0.00;0.00;;;;;;;30.76;30.43;100815.19;5034174;28;20029;-71
2023/06/19 00:28:27;;;;;;;0.00;0.00;;;;;;;30.63;30.14;100813.66;5028634;28;20389;-75
2023/06/19 00:30:53;;;;;;;0.00;0.00;;;;;;;30.84;30.03;100823.31;5014113;28;20048;-74
2023/06/19 00:33:18;;;;;;;0.00;0.00;;;;;;;30.45;30.53;100810.47;5026312;28;20045;-73
2023/06/19 00:35:44;;;;;;;0.00;0.00;;;;;;;30.82;29.69;100808.97;5026173;28;20046;-71
2023/06/19 00:38:09;;;;;;;0.00;0.00;;;;;;;30.84;29.76;100805.88;5030216;28;20512;-71
2023/06/19 00:40:35;;;;;;;0.00;0.00;;;;;;;30.92;29.86;100819.53;5030457;28;20033;-73
2023/06/19 00:43:01;;;;;;;0.00;0.00;;;;;;;30.92;29.73;100811.22;5029903;28;20044;-74
2023/06/19 00:45:26;;;;;;;0.00;0.00;;;;;;;30.94;29.84;100811.66;5030210;28;20083;-73
2023/06/19 00:47:57;;;;;;;0.00;0.00;;;;;;;30.81;29.99;100815.69;5030002;28;20087;-72
2023/06/19 00:50:23;;;;;;;0.00;0.00;;;;;;;30.81;30.06;100810.16;5030118;28;20030;-72
2023/06/19 00:52:49;;;;;;;0.00;0.00;;;;;;;30.61;30.60;100810.44;5030270;28;20029;-73
2023/06/19 00:55:15;;;;;;;0.00;0.00;;;;;;;30.54;30.67;100811.09;5030092;28;20037;-71
2023/06/19 00:57:42;;;;;;;0.00;0.00;;;;;;;30.73;30.42;100815.88;5030139;28;20041;-71
2023/06/19 01:00:09;;;;;;;0.00;0.00;;;;;;;30.52;30.51;100816.19;5030336;28;20087;-73
2023/06/19 01:02:35;;;;;;;0.00;0.00;;;;;;;30.64;30.52;100818.06;5030148;28;20048;-74
2023/06/19 01:05:00;;;;;;;0.00;0.00;;;;;;;30.65;30.83;100814.09;5030110;28;20037;-73
2023/06/19 01:07:42;;;;;;;0.00;0.00;;;;;;;30.65;30.91;100809.38;5030484;28;20034;-75
2023/06/19 01:10:25;;;;;;;0.00;0.00;;;;;;;30.73;30.61;100807.56;5010246;28;20046;-72
2023/06/19 01:13:02;;;;;;;0.00;0.00;;;;;;;30.72;30.96;100817.06;4996956;28;20597;-72
2023/06/19 01:15:28;;;;;;;0.00;0.00;;;;;;;30.65;30.88;100812.13;5028270;28;20058;-71
2023/06/19 01:17:57;;;;;;;0.00;0.00;;;;;;;30.65;31.04;100817.69;5018025;28;20030;-71
2023/06/19 01:20:23;;;;;;;0.00;0.00;;;;;;;30.63;30.98;100811.69;5021915;28;20520;-72
2023/06/19 01:22:49;;;;;;;0.00;0.00;;;;;;;30.41;31.63;100817.88;5010281;28;20025;-72
2023/06/19 01:25:14;;;;;;;0.00;0.00;;;;;;;30.51;31.69;100813.75;5016410;28;20616;-71
2023/06/19 01:27:42;;;;;;;0.00;0.00;;;;;;;30.47;31.91;100824.00;5019469;28;20119;-73
2023/06/19 01:30:10;;;;;;;0.00;0.00;;;;;;;30.43;32.06;100823.09;5005857;28;20037;-74
2023/06/19 01:32:58;;;;;;;0.00;0.00;;;;;;;30.40;32.63;100821.03;5011233;28;20041;-72
2023/06/19 01:35:28;;;;;;;0.00;0.00;;;;;;;30.24;33.09;100812.69;5013924;28;20054;-72
2023/06/19 01:37:54;;;;;;;0.00;0.00;;;;;;;30.20;32.76;100817.31;5021853;28;20386;-74
2023/06/19 01:40:25;;;;;;;0.00;0.00;;;;;;;30.08;33.71;100820.19;5013764;28;20041;-71
2023/06/19 01:42:53;;;;;;;0.00;0.00;;;;;;;30.13;33.73;100825.47;5025939;28;20068;-71
2023/06/19 01:45:18;;;;;;;0.00;0.00;;;;;;;30.16;33.63;100825.56;4991665;28;20038;-72
2023/06/19 01:47:44;;;;;;;0.00;0.00;;;;;;;30.15;33.81;100828.69;5020252;28;20080;-73
2023/06/19 01:50:11;;;;;;;0.00;0.00;;;;;;;30.13;33.75;100826.25;5015617;28;20022;-72
2023/06/19 01:52:38;;;;;;;0.00;0.00;;;;;;;30.06;34.18;100828.84;5026344;28;20452;-72
2023/06/19 01:55:03;;;;;;;0.00;0.00;;;;;;;29.93;34.71;100829.28;5017777;28;20448;-73
2023/06/19 01:57:29;;;;;;;0.00;0.00;;;;;;;30.13;34.19;100828.25;5024486;28;20053;-73
2023/06/19 01:59:54;;;;;;;0.00;0.00;;;;;;;29.92;34.98;100835.97;5004170;28;20042;-73
2023/06/19 02:02:20;;;;;;;0.00;0.00;;;;;;;29.94;34.76;100834.47;5027635;28;20036;-73
2023/06/19 02:04:45;;;;;;;0.00;0.00;;;;;;;29.95;35.05;100833.31;5017175;28;20033;-73
2023/06/19 02:07:11;;;;;;;0.00;0.00;;;;;;;29.95;35.12;100840.81;5026018;28;20029;-72
2023/06/19 02:09:39;;;;;;;0.00;0.00;;;;;;;29.94;35.02;100840.00;5018508;28;20046;-72
2023/06/19 02:12:04;;;;;;;0.00;0.00;;;;;;;29.86;35.58;100840.16;5018990;28;20033;-73
2023/06/19 02:14:30;;;;;;;0.00;0.00;;;;;;;29.82;35.50;100844.81;5027089;28;20103;-72
2023/06/19 02:16:55;;;;;;;0.00;0.00;;;;;;;29.89;35.30;100831.16;5017209;28;20022;-71
2023/06/19 02:19:20;;;;;;;0.00;0.00;;;;;;;29.60;36.17;100837.03;5024008;28;20049;-72
2023/06/19 02:21:46;;;;;;;0.00;0.00;;;;;;;28.86;37.98;100837.53;4999355;28;20716;-72
2023/06/19 02:24:11;;;;;;;0.00;0.00;;;;;;;29.00;37.87;100837.97;4998559;28;20045;-72
2023/06/19 02:26:37;;;;;;;0.00;0.00;;;;;;;29.11;38.07;100839.91;5014748;28;20033;-72
2023/06/19 02:29:02;;;;;;;0.00;0.00;;;;;;;28.60;39.38;100847.00;5017334;28;20033;-73
2023/06/19 02:31:27;;;;;;;0.00;0.00;;;;;;;28.29;40.18;100841.19;5024810;28;20022;-73
2023/06/19 02:33:53;;;;;;;0.00;0.00;;;;;;;28.62;39.48;100855.75;5012687;28;20034;-73
2023/06/19 02:36:21;;;;;;;0.00;0.00;;;;;;;28.39;40.65;100851.81;5012103;28;20030;-73
2023/06/19 02:38:47;;;;;;;0.00;0.00;;;;;;;27.34;43.28;100848.75;5012315;28;20041;-72
2023/06/19 02:41:13;;;;;;;0.00;0.00;;;;;;;28.49;41.22;100859.66;5011786;28;20040;-74
2023/06/19 02:43:40;;;;;;;0.00;0.00;;;;;;;28.54;40.87;100859.44;5013098;28;20064;-74
2023/06/19 02:46:05;;;;;;;0.00;0.00;;;;;;;28.12;42.33;100869.03;5012949;28;20021;-75
2023/06/19 02:48:31;;;;;;;0.00;0.00;;;;;;;28.09;42.43;100852.34;4995015;28;20371;-73
2023/06/19 02:50:56;;;;;;;0.00;0.00;;;;;;;27.59;43.70;100866.28;5012731;28;20034;-72
2023/06/19 02:53:21;;;;;;;0.00;0.00;;;;;;;27.79;43.50;100871.75;5012615;28;20042;-73
2023/06/19 02:55:47;;;;;;;0.00;0.00;;;;;;;27.98;43.32;100862.19;5013026;28;20033;-72
2023/06/19 02:58:12;;;;;;;0.00;0.00;;;;;;;27.68;43.76;100869.75;5012860;28;20165;-72
2023/06/19 03:00:38;;;;;;;0.00;0.00;;;;;;;27.71;44.27;100875.41;5012254;28;20576;-70
2023/06/19 03:03:03;;;;;;;0.00;0.00;;;;;;;27.63;44.69;100875.50;5012132;28;20034;-73
2023/06/19 03:05:28;;;;;;;0.00;0.00;;;;;;;27.67;44.21;100876.44;5012252;28;20042;-70
2023/06/19 03:07:54;;;;;;;0.00;0.00;;;;;;;27.82;43.59;100873.03;5012728;28;20045;-72
2023/06/19 03:10:19;;;;;;;0.00;0.00;;;;;;;27.79;44.32;100882.03;5024458;28;20056;-73
2023/06/19 03:12:45;;;;;;;0.00;0.00;;;;;;;27.90;44.23;100883.19;5031636;28;20171;-72
2023/06/19 03:15:10;;;;;;;0.00;0.00;;;;;;;27.63;44.64;100889.31;5031793;28;20095;-73
2023/06/19 03:17:36;;;;;;;0.00;0.00;;;;;;;27.77;44.18;100887.06;5031829;28;20128;-71
2023/06/19 03:20:01;;;;;;;0.00;0.00;;;;;;;27.55;45.28;100879.13;5031524;28;20022;-72
2023/06/19 03:22:26;;;;;;;0.00;0.00;;;;;;;28.02;44.37;100883.28;5037844;28;20044;-73
2023/06/19 03:24:52;;;;;;;0.00;0.00;;;;;;;27.50;45.59;100895.88;5030219;28;20037;-72
2023/06/19 03:27:17;;;;;;;0.00;0.00;;;;;;;27.19;46.44;100900.97;5030289;28;20041;-70
2023/06/19 03:29:42;;;;;;;0.00;0.00;;;;;;;28.06;44.38;100892.50;5013733;28;20041;-73
2023/06/19 03:32:08;;;;;;;0.00;0.00;;;;;;;28.26;43.62;100899.13;5031493;28;20036;-72
2023/06/19 03:34:34;;;;;;;0.00;0.00;;;;;;;28.18;43.58;100895.31;5031825;28;20480;-72
2023/06/19 03:36:59;;;;;;;0.00;0.00;;;;;;;27.89;44.68;100891.84;5031042;28;20037;-72
2023/06/19 03:39:24;;;;;;;0.00;0.00;;;;;;;27.81;45.11;100901.81;5030894;28;20067;-73
2023/06/19 03:41:50;;;;;;;0.00;0.00;;;;;;;27.86;44.97;100909.88;5031241;28;20505;-72
2023/06/19 03:44:15;;;;;;;0.00;0.00;;;;;;;28.01;45.13;100905.72;5031209;28;20049;-71
2023/06/19 03:46:42;;;;;;;0.00;0.00;;;;;;;28.07;44.44;100918.19;5031778;28;20017;-71
2023/06/19 03:49:09;;;;;;;0.00;0.00;;;;;;;27.56;46.63;100920.22;5031176;28;20040;-72
2023/06/19 03:51:34;;;;;;;0.00;0.00;;;;;;;26.83;48.87;100935.41;5031186;28;20033;-73
2023/06/19 03:54:00;;;;;;;0.00;0.00;;;;;;;27.38;47.87;100934.50;5030842;28;20075;-72
2023/06/19 03:56:25;;;;;;;0.00;0.00;;;;;;;27.21;48.44;100932.59;5031085;28;20037;-74
2023/06/19 03:58:50;;;;;;;0.00;0.00;;;;;;;27.67;46.85;100934.44;5030064;28;20091;-72
2023/06/19 04:01:16;;;;;;;0.00;0.00;;;;;;;27.34;47.88;100934.31;5031923;28;20052;-72
2023/06/19 04:03:41;;;;;;;0.00;0.00;;;;;;;27.39;47.74;100938.84;5030122;28;20157;-72
2023/06/19 04:06:07;;;;;;;0.00;0.00;;;;;;;26.95;49.10;100937.44;5033858;28;20033;-72
2023/06/19 04:08:33;;;;;;;0.00;0.00;;;;;;;27.09;49.45;100938.03;5015275;28;20056;-71
2023/06/19 04:10:58;;;;;;;0.00;0.00;;;;;;;27.02;50.09;100929.47;5029883;28;20053;-72
2023/06/19 04:13:25;;;;;;;0.00;0.00;;;;;;;27.25;48.80;100929.97;5046536;28;20033;-70
2023/06/19 04:15:51;;;;;;;0.00;0.00;;;;;;;27.63;47.68;100933.50;5037917;28;20057;-71
2023/06/19 04:18:17;;;;;;;0.00;0.00;;;;;;;27.13;49.58;100929.88;5029297;28;20056;-73
2023/06/19 04:20:42;;;;;;;0.00;0.00;;;;;;;27.34;48.71;100926.03;5030619;28;20452;-71
2023/06/19 04:23:07;;;;;;;0.00;0.00;;;;;;;27.19;49.34;100934.88;5037722;28;20099;-71
2023/06/19 04:25:33;;;;;;;0.00;0.00;;;;;;;27.40;49.30;100941.28;5030897;28;20493;-70
2023/06/19 04:27:58;;;;;;;0.00;0.00;;;;;;;26.98;50.60;100945.06;5030479;28;20477;-71
2023/06/19 04:30:23;;;;;;;0.00;0.00;;;;;;;26.83;51.01;100951.13;5030441;28;20100;-72
2023/06/19 04:32:49;;;;;;;0.00;0.00;;;;;;;27.34;49.52;100950.88;5030142;28;20025;-70
2023/06/19 04:35:14;;;;;;;0.00;0.00;;;;;;;27.11;50.79;100949.53;5030479;28;20164;-71
2023/06/19 04:37:40;;;;;;;0.00;0.00;;;;;;;27.33;50.47;100954.81;5030589;28;20033;-72
2023/06/19 04:40:07;;;;;;;0.00;0.00;;;;;;;27.25;50.44;100952.06;5030154;28;20045;-69
2023/06/19 04:42:33;;;;;;;0.00;0.00;;;;;;;27.19;51.18;100945.94;5030066;28;20040;-71
2023/06/19 04:44:59;;;;;;;0.00;0.00;;;;;;;26.28;53.95;100953.06;5029755;28;20042;-71
2023/06/19 04:47:24;;;;;;;0.00;0.00;;;;;;;27.15;51.63;100957.94;5029147;28;20120;-72
2023/06/19 04:49:50;;;;;;;0.00;0.00;;;;;;;26.89;52.90;100966.34;5034465;28;20019;-71
2023/06/19 04:52:15;;;;;;;0.00;0.00;;;;;;;26.35;54.19;100962.47;5038516;28;20076;-70
2023/06/19 04:54:41;;;;;;;0.00;0.00;;;;;;;27.01;52.34;100966.47;5037917;28;20036;-71
2023/06/19 04:57:06;;;;;;;0.00;0.00;;;;;;;27.38;51.45;100962.09;5036965;28;20531;-71
2023/06/19 04:59:33;;;;;;;0.00;0.00;;;;;;;27.05;52.44;100964.66;5038232;28;20551;-70
2023/06/19 05:01:59;;;;;;;0.00;0.00;;;;;;;27.42;51.10;100968.56;5038592;28;20032;-71
2023/06/19 05:04:24;;;;;;;0.00;0.00;;;;;;;27.39;51.38;100975.56;5039461;28;20033;-68
2023/06/19 05:06:50;;;;;;;0.00;0.00;;;;;;;26.84;53.81;100974.81;5031293;28;20037;-72
2023/06/19 05:09:16;;;;;;;0.00;0.00;;;;;;;26.53;54.65;100982.50;5035361;28;20566;-73
2023/06/19 05:11:41;;;;;;;0.00;0.00;;;;;;;26.48;54.99;100985.44;5022058;28;20038;-72
2023/06/19 05:14:07;;;;;;;0.20;0.00;;;;;;;27.10;53.52;100978.28;5008736;28;20027;-69
2023/06/19 05:16:33;;;;;;;0.00;0.00;;;;;;;27.06;53.75;100990.31;5028531;28;20021;-73
2023/06/19 05:18:59;;;;;;;0.00;0.00;;;;;;;26.01;56.74;100987.25;5022955;28;20033;-76
2023/06/19 05:21:25;;;;;;;0.00;0.00;;;;;;;26.58;56.06;100988.66;5029838;28;20046;-72
2023/06/19 05:23:52;;;;;;;0.00;0.00;;;;;;;26.31;57.08;100991.81;5035687;28;20430;-73
2023/06/19 05:26:22;;;;;;;0.00;0.00;;;;;;;27.85;52.22;101004.16;5029611;28;20064;-72
2023/06/19 05:28:48;;;;;;;0.00;0.00;;;;;;;27.21;54.06;100998.84;5033035;28;20014;-73
2023/06/19 05:31:13;;;;;;;0.00;0.00;;;;;;;26.72;55.89;101014.13;5033305;28;20520;-73
2023/06/19 05:33:38;;;;;;;0.00;0.00;;;;;;;26.26;57.16;101014.00;5032721;28;20670;-73
2023/06/19 05:36:04;;;;;;;0.00;0.00;;;;;;;27.08;55.38;101007.34;5032537;28;20041;-72
2023/06/19 05:38:30;;;;;;;0.00;0.00;;;;;;;27.03;55.34;101011.09;5033042;28;20040;-72
2023/06/19 05:40:56;;;;;;;0.00;0.00;;;;;;;26.93;55.19;101028.00;5033457;28;20033;-72
2023/06/19 05:43:22;;;;;;;0.00;0.00;;;;;;;27.34;54.00;101022.66;5016909;28;20072;-71
2023/06/19 05:45:47;;;;;;;0.00;0.00;;;;;;;26.70;55.61;101012.78;5032968;28;20037;-73
2023/06/19 05:48:13;;;;;;;0.00;0.00;;;;;;;26.70;56.36;101016.41;5033371;28;20109;-71
2023/06/19 05:50:38;;;;;;;0.00;0.00;;;;;;;26.47;57.30;101030.69;5025842;28;20054;-72
2023/06/19 05:53:05;;;;;;;0.00;0.00;;;;;;;26.79;56.02;101027.41;5041862;28;20388;-70
2023/06/19 05:55:30;;;;;;;0.00;0.00;;;;;;;27.14;55.22;101031.66;5008472;28;20103;-70
2023/06/19 05:57:56;;;;;;;0.00;0.00;;;;;;;26.78;56.46;101040.38;5021725;28;20037;-71
2023/06/19 06:00:22;;;;;;;0.00;0.00;;;;;;;26.72;56.08;101046.41;5027745;28;20133;-72
2023/06/19 06:02:48;;;;;;;0.00;0.00;;;;;;;26.82;56.48;101041.34;5030166;28;20034;-73
2023/06/19 06:05:13;;;;;;;0.00;0.00;;;;;;;26.63;56.70;101038.09;5024397;28;20088;-72
2023/06/19 06:07:39;;;;;;;0.00;0.00;;;;;;;26.97;56.10;101044.72;5034038;28;20025;-71
2023/06/19 06:10:05;;;;;;;0.00;0.00;;;;;;;27.00;55.81;101049.56;5027456;28;20494;-70
2023/06/19 06:12:33;;;;;;;0.00;0.00;;;;;;;27.09;55.71;101051.16;5026041;28;20095;-73
2023/06/19 06:14:58;;;;;;;0.00;0.00;;;;;;;26.13;58.62;101061.00;5033200;28;20103;-74
2023/06/19 06:17:23;;;;;;;0.00;0.00;;;;;;;25.99;59.27;101078.47;5031820;28;20037;-75
2023/06/19 06:19:49;;;;;;;0.00;0.00;;;;;;;26.32;58.30;101067.03;5029514;28;20025;-74
2023/06/19 06:22:14;;;;;;;0.00;0.00;;;;;;;26.00;59.19;101077.31;5037519;28;20037;-73
2023/06/19 06:24:39;;;;;;;0.00;0.00;;;;;;;26.83;55.67;101081.56;5041235;28;20513;-74
2023/06/19 06:27:05;;;;;;;0.00;0.00;;;;;;;26.76;56.83;101074.94;5033083;28;20099;-73
2023/06/19 06:29:31;;;;;;;0.00;0.00;;;;;;;26.89;55.58;101065.66;5016806;28;20490;-72
2023/06/19 06:32:07;;;;;;;0.00;0.00;;;;;;;26.35;57.72;101074.63;5027704;28;20022;-75
2023/06/19 06:34:33;;;;;;;0.00;0.00;;;;;;;26.83;55.49;101078.81;5035394;28;20100;-73
2023/06/19 06:36:59;;;;;;;0.00;0.00;;;;;;;26.44;56.12;101079.00;5031473;28;20056;-71
2023/06/19 06:39:25;;;;;;;0.00;0.00;;;;;;;26.43;55.67;101071.88;5014567;28;20056;-73
2023/06/19 06:41:51;;;;;;;0.00;0.00;;;;;;;26.48;55.60;101085.47;5041045;28;20025;-73
2023/06/19 06:44:16;;;;;;;0.00;0.00;;;;;;;26.05;55.27;101093.72;5042026;28;20128;-79
2023/06/19 06:46:41;;;;;;;0.00;0.00;;;;;;;26.41;54.20;101085.19;5022643;28;20102;-74
2023/06/19 06:49:07;;;;;;;0.00;0.00;;;;;;;26.52;53.63;101089.22;5039782;28;20045;-73
2023/06/19 06:51:33;;;;;;;0.00;0.00;;;;;;;26.33;53.94;101097.00;5024873;28;20143;-73
2023/06/19 06:53:58;;;;;;;0.00;0.00;;;;;;;26.65;53.51;101102.00;5041328;28;20103;-72
2023/06/19 06:56:24;;;;;;;0.00;0.00;;;;;;;26.69;53.70;101102.19;5041072;28;20038;-73
2023/06/19 06:58:49;;;;;;;0.00;0.00;;;;;;;26.41;54.47;101112.75;5018823;28;20032;-72
2023/06/19 07:01:14;;;;;;;0.00;0.00;;;;;;;26.18;55.10;101105.72;5013643;28;20039;-73
2023/06/19 07:03:40;;;;;;;0.00;0.00;;;;;;;26.26;54.62;101110.44;5031992;28;20041;-71
2023/06/19 07:06:05;;;;;;;0.00;0.00;;;;;;;26.67;53.82;101113.50;5011877;28;20032;-73
2023/06/19 07:08:31;;;;;;;0.00;0.00;;;;;;;26.44;54.00;101114.00;5031556;28;20456;-75
2023/06/19 07:10:56;;;;;;;0.00;0.00;;;;;;;27.04;52.41;101123.09;5031486;28;20053;-73
2023/06/19 07:13:23;;;;;;;0.00;0.00;;;;;;;27.09;52.19;101113.78;5031937;28;20030;-75
2023/06/19 07:15:48;;;;;;;0.00;0.00;;;;;;;27.23;50.86;101122.69;5013060;28;20042;-74
2023/06/19 07:18:13;;;;;;;0.00;0.00;;;;;;;27.04;51.21;101120.31;5031251;28;20030;-75
2023/06/19 07:20:39;;;;;;;0.00;0.00;;;;;;;26.68;52.22;101131.69;5030956;28;20029;-73
2023/06/19 07:23:04;;;;;;;0.00;0.00;;;;;;;27.32;51.17;101129.00;5030949;28;20029;-72
2023/06/19 07:25:30;;;;;;;0.00;0.00;;;;;;;26.87;52.14;101136.88;5031559;28;20021;-72
2023/06/19 07:27:55;;;;;;;0.00;0.00;;;;;;;26.75;52.44;101140.31;5013973;28;20049;-73
2023/06/19 07:30:21;;;;;;;0.00;0.00;;;;;;;25.99;54.56;101141.81;5031362;28;20034;-74
2023/06/19 07:32:46;;;;;;;0.00;0.00;;;;;;;26.85;52.33;101144.66;5031145;28;20413;-74
2023/06/19 07:35:12;;;;;;;0.00;0.00;;;;;;;26.77;52.00;101151.81;5031059;28;20029;-74
2023/06/19 07:37:37;;;;;;;0.00;0.00;;;;;;;26.42;53.17;101154.88;5031887;28;20078;-72
2023/06/19 07:40:03;;;;;;;0.00;0.00;;;;;;;26.32;53.42;101160.72;5031051;28;20036;-75
2023/06/19 07:42:29;;;;;;;0.00;0.00;;;;;;;26.33;53.86;101152.13;5027953;28;20046;-71
2023/06/19 07:44:54;;;;;;;0.00;0.00;;;;;;;26.89;51.70;101154.72;5020849;28;20033;-71
2023/06/19 07:47:20;;;;;;;0.00;0.00;;;;;;;27.09;50.98;101150.47;5031694;28;20041;-71
2023/06/19 07:49:46;;;;;;;0.00;0.00;;;;;;;26.87;52.02;101157.00;5011072;28;20695;-72
2023/06/19 07:52:12;;;;;;;0.00;0.00;;;;;;;26.13;52.02;101151.91;5026673;28;20037;-76
2023/06/19 07:55:05;;;;;;;0.00;0.00;;;;;;;26.95;50.07;101171.94;5028689;28;20044;-69
2023/06/19 07:57:31;;;;;;;0.00;0.00;;;;;;;27.37;49.73;101173.84;5028241;28;20037;-77
2023/06/19 07:59:56;;;;;;;0.00;0.00;;;;;;;26.84;49.74;101178.94;5028650;28;20371;-72
2023/06/19 08:02:21;;;;;;;0.00;0.00;;;;;;;26.91;49.35;101170.94;5024891;28;20064;-71
2023/06/19 08:04:47;;;;;;;0.00;0.00;;;;;;;26.65;48.79;101183.94;5006910;28;20542;-74
2023/06/19 08:07:12;;;;;;;0.00;0.00;;;;;;;27.68;46.36;101184.59;4990700;28;20045;-75
2023/06/19 08:09:38;;;;;;;0.00;0.00;;;;;;;27.55;47.17;101188.38;5021621;28;20454;-75
2023/06/19 08:12:03;;;;;;;0.00;0.00;;;;;;;27.87;46.07;101193.31;5027712;28;20036;-75
2023/06/19 08:14:29;;;;;;;0.00;0.00;;;;;;;27.38;46.11;101186.47;5028545;28;20026;-75
2023/06/19 08:16:54;;;;;;;0.00;0.00;;;;;;;27.13;46.95;101198.34;5028498;28;20021;-74
2023/06/19 08:19:20;;;;;;;0.00;0.00;;;;;;;28.11;44.97;101198.25;5027632;28;20800;-76
2023/06/19 08:21:45;;;;;;;0.00;0.00;;;;;;;27.37;46.82;101192.34;5028530;28;20037;-77
2023/06/19 08:24:11;;;;;;;0.00;0.00;;;;;;;28.31;44.31;101201.03;5028262;28;20038;-76
2023/06/19 08:26:36;;;;;;;0.00;0.00;;;;;;;28.24;44.39;101208.25;5027752;28;20041;-75
2023/06/19 08:29:02;;;;;;;0.00;0.00;;;;;;;27.97;44.77;101206.75;5028417;28;20021;-76
2023/06/19 08:31:28;;;;;;;0.00;0.00;;;;;;;27.83;45.80;101202.56;5028798;28;20029;-77
2023/06/19 08:33:54;;;;;;;0.00;0.00;;;;;;;28.21;43.94;101214.44;5028533;28;20032;-75
2023/06/19 08:36:20;;;;;;;0.00;0.00;;;;;;;27.48;46.43;101216.50;5028189;28;20127;-75
2023/06/19 08:38:49;;;;;;;0.00;0.00;;;;;;;27.67;46.01;101210.59;5026949;28;20508;-71
2023/06/19 08:41:16;;;;;;;0.00;0.00;;;;;;;27.38;46.81;101213.28;5026833;28;20034;-71
2023/06/19 08:43:42;;;;;;;0.00;0.00;;;;;;;27.71;47.42;101212.34;5027250;28;20010;-70
2023/06/19 08:46:15;;;;;;;0.00;0.00;;;;;;;27.32;48.13;101222.84;5026742;28;20520;-72
2023/06/19 08:48:41;;;;;;;0.00;0.00;;;;;;;27.43;48.13;101219.44;5026536;28;20029;-71
2023/06/19 08:51:07;;;;;;;0.00;0.00;;;;;;;27.55;47.75;101221.53;5013125;28;20045;-71
2023/06/19 08:53:37;;;;;;;0.00;0.00;;;;;;;28.15;46.32;101232.34;5025109;28;20044;-70
2023/06/19 08:56:03;;;;;;;0.00;0.00;;;;;;;27.38;47.64;101230.66;5026688;28;20134;-71
2023/06/19 08:58:28;;;;;;;0.00;0.00;;;;;;;28.35;45.78;101235.16;5025222;28;20022;-72
2023/06/19 09:00:54;;;;;;;0.00;0.00;;;;;;;29.63;42.61;101249.09;5026441;28;20641;-71
2023/06/19 09:03:24;;;;;;;0.00;0.00;;;;;;;27.85;46.74;101245.31;5024158;28;20037;-71
2023/06/19 09:05:50;;;;;;;0.00;0.00;;;;;;;28.50;45.57;101244.84;5025845;28;20056;-70
2023/06/19 09:08:16;;;;;;;0.00;0.00;;;;;;;27.27;48.22;101250.59;5027027;28;20014;-69
2023/06/19 09:10:43;;;;;;;0.00;0.00;;;;;;;27.72;46.99;101260.13;5008822;28;20145;-72
2023/06/19 09:13:08;;;;;;;0.00;0.00;;;;;;;28.26;45.81;101267.59;5024121;28;20128;-71
2023/06/19 09:15:37;;;;;;;0.00;0.00;;;;;;;28.13;44.56;101284.38;5025762;28;20405;-70
2023/06/19 09:18:06;;;;;;;0.00;0.00;;;;;;;27.47;46.14;101275.63;5025714;28;20640;-69
2023/06/19 09:20:33;;;;;;;0.00;0.00;;;;;;;28.64;43.90;101270.31;5025954;28;20038;-69
2023/06/19 09:22:59;;;;;;;0.00;0.00;;;;;;;27.73;44.59;101281.09;5021627;28;20018;-69
2023/06/19 09:25:26;;;;;;;0.00;0.00;;;;;;;28.30;43.69;101281.56;5026515;28;20571;-72
2023/06/19 09:27:53;;;;;;;0.00;0.00;;;;;;;27.72;44.31;101274.75;5022847;28;20065;-73
2023/06/19 09:30:18;;;;;;;0.00;0.00;;;;;;;28.07;44.56;101278.22;5026990;28;20037;-72
2023/06/19 09:32:44;;;;;;;0.00;0.00;;;;;;;27.78;46.04;101283.66;5026257;28;20095;-73
2023/06/19 09:35:09;;;;;;;0.00;0.00;;;;;;;28.80;43.38;101279.63;5026476;28;20033;-72
2023/06/19 09:37:35;;;;;;;0.00;0.00;;;;;;;28.52;43.22;101281.28;5030282;28;20044;-71
2023/06/19 09:40:10;;;;;;;0.00;0.00;;;;;;;28.24;44.55;101280.94;5026513;28;20025;-74
2023/06/19 09:42:40;;;;;;;0.00;0.00;;;;;;;28.40;44.07;101272.88;5024873;28;20046;-74
2023/06/19 09:45:08;;;;;;;0.00;0.00;;;;;;;28.09;44.35;101280.69;5021040;28;20069;-71
2023/06/19 09:47:44;;;;;;;0.00;0.00;;;;;;;28.69;42.78;101280.38;5010125;28;20034;-73
2023/06/19 09:50:12;;;;;;;0.00;0.00;;;;;;;28.52;43.21;101281.28;5026387;28;20707;-72
2023/06/19 09:52:39;;;;;;;0.00;0.00;;;;;;;29.24;42.51;101280.94;5026522;28;20112;-71
2023/06/19 09:55:06;;;;;;;0.00;0.00;;;;;;;28.47;42.33;101286.97;5026769;28;20441;-72
2023/06/19 09:57:33;;;;;;;0.00;0.00;;;;;;;27.50;44.39;101280.50;5024373;28;20482;-72
2023/06/19 10:00:09;;;;;;;0.00;0.00;;;;;;;28.14;42.40;101288.78;5026310;28;20481;-71
2023/06/19 10:02:35;;;;;;;0.00;0.00;;;;;;;27.57;43.41;101291.84;5026003;28;20030;-68
2023/06/19 10:05:00;;;;;;;0.00;0.00;;;;;;;28.71;41.85;101292.72;5026463;28;20044;-71
2023/06/19 10:07:33;;;;;;;0.00;0.00;;;;;;;28.12;42.68;101291.06;5026149;28;20021;-71
2023/06/19 10:10:07;;;;;;;0.00;0.00;;;;;;;28.29;42.73;101294.56;4988126;28;20054;-70
2023/06/19 10:12:40;;;;;;;0.00;0.00;;;;;;;27.97;44.88;101294.38;5005817;28;20132;-72
2023/06/19 10:15:16;;;;;;;0.00;0.00;;;;;;;28.33;44.43;101303.00;5006821;28;20053;-71
2023/06/19 10:18:05;;;;;;;0.05;0.00;;;;;;;29.10;43.00;101306.09;5018595;28;20114;-74
2023/06/19 10:20:33;;;;;;;0.00;0.00;;;;;;;29.23;42.74;101298.69;5037346;28;20752;-71
2023/06/19 10:23:03;;;;;;;0.00;0.00;;;;;;;29.89;41.16;101313.38;5042461;28;20769;-72
2023/06/19 10:25:31;;;;;;;0.00;0.00;;;;;;;29.50;41.13;101312.75;5012207;28;20042;-72
2023/06/19 10:27:58;;;;;;;0.00;0.00;;;;;;;29.52;41.05;101312.44;5009470;28;20061;-73
2023/06/19 10:30:23;;;;;;;0.00;0.00;;;;;;;29.94;39.94;101315.91;5006103;28;20030;-73
2023/06/19 10:32:49;;;;;;;0.00;0.00;;;;;;;29.51;40.70;101313.59;4995560;28;20034;-73
2023/06/19 10:35:16;;;;;;;0.00;0.00;;;;;;;29.91;40.27;101302.75;5023463;28;20137;-72
2023/06/19 10:37:42;;;;;;;0.00;0.00;;;;;;;30.50;38.93;101308.72;5010958;28;20033;-71
2023/06/19 10:40:09;;;;;;;0.00;0.00;;;;;;;30.88;38.50;101314.75;5019650;28;20033;-73
2023/06/19 10:42:37;;;;;;;0.00;0.00;;;;;;;31.19;37.74;101303.78;5024118;28;20513;-74
2023/06/19 10:45:05;;;;;;;0.00;0.00;;;;;;;30.25;38.42;101305.13;5022818;28;20036;-72
2023/06/19 10:47:32;;;;;;;0.00;0.00;;;;;;;29.64;39.62;101309.69;5010952;28;20076;-71
2023/06/19 10:49:57;;;;;;;0.00;0.00;;;;;;;30.78;38.02;101302.09;5022935;28;20112;-72
2023/06/19 10:52:23;;;;;;;0.00;0.00;;;;;;;30.49;38.77;101312.63;5015062;28;20030;-72
2023/06/19 10:54:55;;;;;;;0.00;0.00;;;;;;;31.13;37.70;101302.41;5018709;28;20480;-71
2023/06/19 10:57:30;;;;;;;0.00;0.00;;;;;;;30.64;36.88;101303.63;5027332;28;20477;-69
2023/06/19 10:59:58;;;;;;;0.00;0.00;;;;;;;30.45;37.27;101309.75;5021182;28;20034;-72
2023/06/19 11:02:23;;;;;;;0.00;0.00;;;;;;;30.29;37.48;101314.38;5027397;28;20140;-71
2023/06/19 11:04:52;;;;;;;0.00;0.00;;;;;;;30.43;37.68;101320.41;5028310;28;20115;-73
2023/06/19 11:07:17;;;;;;;0.00;0.00;;;;;;;30.11;37.23;101322.06;5028118;28;20022;-72
2023/06/19 11:09:43;;;;;;;0.00;0.00;;;;;;;29.72;38.59;101314.38;5002438;28;20331;-71
2023/06/19 11:12:08;;;;;;;0.00;0.00;;;;;;;30.18;37.94;101316.78;5001587;28;20030;-71
2023/06/19 11:14:39;;;;;;;0.00;0.00;;;;;;;30.73;37.11;101293.19;5014012;28;20087;-71
2023/06/19 11:17:06;;;;;;;0.00;0.00;;;;;;;31.27;36.87;101291.72;5020170;28;20084;-72
2023/06/19 11:19:35;;;;;;;0.00;0.00;;;;;;;31.70;36.29;101296.50;5010932;28;20109;-73
2023/06/19 11:22:03;;;;;;;0.00;0.00;;;;;;;31.40;35.92;101304.41;5023836;28;20037;-73